Time;durP1;ratioP1;P1;durP2;ratioP2;P2;SDS_P1;SDS_P2;PMS_P1;PMS_P2;Temp;Humidity;BMP_temperature;BMP_pressure;BME280_temperature;BME280_humidity;BME280_pressure;Samples;Min_cycle;Max_cycle;Signal;HPM_P1;HPM_P2
2023/03/30 00:00:00;;;;;;;10.47;4.47;;;;;;;1.70;61.98;101208.88;5049229;28;20032;-70
2023/03/30 00:02:30;;;;;;;9.40;3.73;;;;;;;1.66;60.51;101211.91;5049073;28;20029;-74
2023/03/30 00:05:01;;;;;;;7.20;3.07;;;;;;;1.66;60.56;101219.53;5048994;28;20029;-70
2023/03/30 00:07:29;;;;;;;5.70;3.00;;;;;;;1.41;60.32;101215.81;5049477;28;20115;-75
2023/03/30 00:09:55;;;;;;;5.53;2.63;;;;;;;1.59;60.36;101225.78;5048899;28;20469;-73
2023/03/30 00:12:20;;;;;;;8.43;3.00;;;;;;;1.46;61.15;101203.50;5049136;28;20541;-71
2023/03/30 00:14:46;;;;;;;8.83;5.23;;;;;;;1.66;60.66;101227.16;5048743;28;20033;-73
2023/03/30 00:17:12;;;;;;;8.77;4.77;;;;;;;1.77;60.11;101222.25;5049268;28;20044;-71
2023/03/30 00:19:37;;;;;;;5.63;3.30;;;;;;;1.61;60.06;101199.69;5049295;28;20041;-73
2023/03/30 00:22:04;;;;;;;8.53;4.00;;;;;;;1.68;60.38;101220.56;5049169;28;20090;-70
2023/03/30 00:24:30;;;;;;;5.87;3.00;;;;;;;1.68;63.98;101213.81;5049026;28;20033;-72
2023/03/30 00:26:55;;;;;;;9.43;4.37;;;;;;;1.69;62.12;101202.00;5051920;28;20064;-73
2023/03/30 00:29:21;;;;;;;8.47;3.80;;;;;;;1.72;61.93;101215.88;5052193;28;20406;-73
2023/03/30 00:31:46;;;;;;;7.73;3.60;;;;;;;1.54;64.88;101184.66;5052592;28;20028;-74
2023/03/30 00:34:11;;;;;;;6.37;3.80;;;;;;;1.43;63.59;101173.59;5052692;28;20471;-70
2023/03/30 00:36:37;;;;;;;7.57;3.40;;;;;;;1.68;62.81;101211.25;5052909;28;20035;-71
2023/03/30 00:39:07;;;;;;;6.73;3.70;;;;;;;1.64;63.00;101210.91;5052448;28;20062;-73
2023/03/30 00:41:35;;;;;;;4.93;3.17;;;;;;;1.44;62.66;101200.78;5051452;28;20154;-74
2023/03/30 00:44:07;;;;;;;6.63;3.03;;;;;;;1.38;63.11;101210.44;5052473;28;20033;-74
2023/03/30 00:46:33;;;;;;;6.93;3.53;;;;;;;1.04;63.35;101207.53;5052374;28;20391;-70
2023/03/30 00:49:09;;;;;;;6.57;3.77;;;;;;;0.56;66.12;101213.53;5052052;28;20029;-70
2023/03/30 00:51:38;;;;;;;6.17;3.27;;;;;;;0.68;65.62;101221.34;5051939;28;20056;-70
2023/03/30 00:54:15;;;;;;;5.38;3.22;;;;;;;0.54;66.93;101212.50;5052095;28;20124;-71
2023/03/30 00:56:41;;;;;;;7.27;2.83;;;;;;;0.60;66.50;101224.88;5052034;28;20032;-71
2023/03/30 00:59:07;;;;;;;5.50;3.30;;;;;;;0.61;67.01;101230.09;5052117;28;20107;-73
2023/03/30 01:01:37;;;;;;;5.50;3.40;;;;;;;0.71;66.77;101220.72;5052197;28;20120;-70
2023/03/30 01:04:04;;;;;;;7.43;3.22;;;;;;;0.77;66.12;101229.81;5052108;28;20518;-74
2023/03/30 01:06:33;;;;;;;6.70;3.30;;;;;;;0.88;65.65;101215.47;5052257;28;20453;-71
2023/03/30 01:08:58;;;;;;;6.47;3.67;;;;;;;1.03;65.29;101215.91;5032610;28;20041;-75
2023/03/30 01:11:44;;;;;;;5.97;3.70;;;;;;;1.05;65.89;101226.25;5069271;28;20036;-73
2023/03/30 01:14:14;;;;;;;7.93;4.00;;;;;;;1.10;66.08;101222.44;5069299;28;20086;-72
2023/03/30 01:17:12;;;;;;;8.77;4.25;;;;;;;1.16;65.61;101228.06;5069389;28;20474;-74
2023/03/30 01:19:57;;;;;;;9.00;4.23;;;;;;;1.03;66.08;101218.47;5069316;28;20508;-72
2023/03/30 01:22:51;;;;;;;6.70;3.23;;;;;;;0.92;66.44;101234.44;5056251;28;20040;-75
2023/03/30 01:25:48;;;;;;;8.27;3.83;;;;;;;0.73;65.85;101203.97;5069097;28;20032;-74
2023/03/30 01:28:13;;;;;;;7.40;3.80;;;;;;;0.83;65.12;101237.06;5067265;28;20178;-74
2023/03/30 01:31:24;;;;;;;10.97;3.80;;;;;;;0.74;65.49;101243.88;5059998;28;20127;-72
2023/03/30 01:34:01;;;;;;;8.40;3.97;;;;;;;0.69;66.75;101238.38;5068935;28;20207;-73
2023/03/30 01:36:38;;;;;;;8.10;4.03;;;;;;;-0.06;70.12;101141.13;5068971;28;20123;-70
2023/03/30 01:39:12;;;;;;;10.00;5.60;;;;;;;0.47;70.73;101239.03;5068374;28;20112;-76
2023/03/30 01:41:47;;;;;;;19.77;10.03;;;;;;;0.18;70.76;101195.75;5068280;28;20641;-73
2023/03/30 01:44:59;;;;;;;9.90;5.47;;;;;;;0.50;68.15;101245.13;5051779;28;20092;-75
2023/03/30 01:47:37;;;;;;;10.67;4.13;;;;;;;0.48;67.94;101248.41;5009024;28;20424;-74
2023/03/30 01:50:10;;;;;;;9.40;4.53;;;;;;;0.46;70.11;101243.94;5009173;28;20504;-75
2023/03/30 01:52:52;;;;;;;10.30;5.13;;;;;;;0.50;70.76;101248.56;5008945;28;20041;-77
2023/03/30 01:55:32;;;;;;;8.30;4.33;;;;;;;0.56;68.04;101250.75;5008702;28;20048;-73
2023/03/30 01:58:17;;;;;;;;;;;;;;;0.49;67.94;101249.31;5009406;28;20038;-75
2023/03/30 02:00:48;;;;;;;8.20;3.80;;;;;;;0.33;67.94;101244.50;4947275;29;19915;-73
2023/03/30 02:03:37;;;;;;;8.00;4.00;;;;;;;0.11;68.86;101241.66;4949485;29;20035;-74
2023/03/30 02:06:19;;;;;;;7.80;4.37;;;;;;;0.14;70.09;101258.06;4949956;29;20107;-77
2023/03/30 02:08:48;;;;;;;9.87;3.67;;;;;;;0.10;70.48;101247.47;4950190;29;20086;-76
2023/03/30 02:11:14;;;;;;;7.57;3.60;;;;;;;0.14;69.27;101252.97;4949631;29;20598;-71
2023/03/30 02:13:41;;;;;;;7.33;4.03;;;;;;;0.13;69.41;101255.38;4950149;29;20110;-71
2023/03/30 02:16:14;;;;;;;8.33;4.67;;;;;;;0.07;69.34;101253.16;4950428;29;20057;-72
2023/03/30 02:18:39;;;;;;;10.37;5.63;;;;;;;-0.26;70.08;101261.09;4950496;29;20097;-71
2023/03/30 02:21:05;;;;;;;8.40;4.20;;;;;;;-0.37;70.51;101268.63;4976948;28;20591;-74
2023/03/30 02:23:35;;;;;;;6.13;3.50;;;;;;;-0.67;71.63;101261.56;5008752;28;20050;-76
2023/03/30 02:26:00;;;;;;;7.67;4.13;;;;;;;-0.84;72.51;101260.84;5008556;28;20507;-73
2023/03/30 02:28:26;;;;;;;6.27;3.40;;;;;;;-1.14;72.37;101206.47;5008904;28;20030;-75
2023/03/30 02:30:51;;;;;;;8.33;3.87;;;;;;;-0.72;72.79;101272.91;5008584;28;20107;-76
2023/03/30 02:33:29;;;;;;;8.17;3.80;;;;;;;-0.88;72.42;101220.75;5008551;28;20041;-75
2023/03/30 02:36:20;;;;;;;6.20;3.47;;;;;;;-0.57;72.26;101268.41;5008666;28;20034;-76
2023/03/30 02:39:04;;;;;;;7.70;4.03;;;;;;;-0.72;72.39;101278.00;5040027;28;20404;-74
2023/03/30 02:41:51;;;;;;;6.37;3.60;;;;;;;-0.69;72.89;101278.25;5050514;28;20087;-74
2023/03/30 02:44:20;;;;;;;9.47;4.33;;;;;;;-0.71;72.64;101284.81;5050639;28;20489;-74
2023/03/30 02:46:51;;;;;;;10.97;6.03;;;;;;;-0.55;72.17;101277.94;5050764;28;20021;-74
2023/03/30 02:49:25;;;;;;;11.10;3.90;;;;;;;-0.84;72.06;101250.69;5047457;28;20032;-73
2023/03/30 02:51:53;;;;;;;7.23;3.67;;;;;;;-0.79;72.81;101285.75;5045986;28;20104;-74
2023/03/30 02:54:24;;;;;;;7.30;3.77;;;;;;;-1.08;74.03;101289.81;5045991;28;20057;-73
2023/03/30 02:57:02;;;;;;;7.63;3.30;;;;;;;-1.29;75.53;101298.75;5045765;28;20028;-76
2023/03/30 02:59:36;;;;;;;8.63;3.43;;;;;;;-1.28;76.11;101300.53;5046074;28;20029;-76
2023/03/30 03:02:21;;;;;;;8.60;4.13;;;;;;;-1.28;76.67;101303.06;5048247;28;20410;-75
2023/03/30 03:04:49;;;;;;;7.23;4.27;;;;;;;-1.50;76.52;101255.38;5050197;28;20082;-72
2023/03/30 03:07:14;;;;;;;8.70;4.20;;;;;;;-1.08;76.57;101301.59;5050484;28;20029;-76
2023/03/30 03:09:40;;;;;;;8.53;4.50;;;;;;;-1.05;76.67;101300.22;5049897;28;20036;-72
2023/03/30 03:12:06;;;;;;;7.23;4.57;;;;;;;-0.92;76.69;101293.81;5050190;28;20025;-75
2023/03/30 03:14:31;;;;;;;7.80;3.93;;;;;;;-1.07;76.15;101243.44;5050252;28;20025;-75
2023/03/30 03:16:57;;;;;;;11.07;4.67;;;;;;;-0.68;75.36;101302.88;5050421;28;20689;-72
2023/03/30 03:19:22;;;;;;;9.30;5.90;;;;;;;-0.88;75.82;101252.81;5050221;28;20139;-72
2023/03/30 03:21:48;;;;;;;14.37;6.40;;;;;;;-0.83;75.14;101290.50;5050388;28;20446;-72
2023/03/30 03:24:16;;;;;;;13.17;6.47;;;;;;;-0.72;74.69;101285.59;5050324;28;20048;-72
2023/03/30 03:26:42;;;;;;;16.80;7.83;;;;;;;-0.64;74.21;101279.59;5050076;28;20021;-74
2023/03/30 03:29:08;;;;;;;9.27;5.20;;;;;;;-0.78;74.10;101288.44;5050139;28;20021;-74
2023/03/30 03:31:34;;;;;;;9.53;4.97;;;;;;;-1.16;74.51;101278.03;5048931;28;20506;-75
2023/03/30 03:34:00;;;;;;;11.57;4.20;;;;;;;-1.35;74.82;101310.81;5049746;28;20116;-73
2023/03/30 03:36:26;;;;;;;10.60;4.23;;;;;;;-1.48;75.16;101276.69;5050225;28;20049;-77
2023/03/30 03:38:52;;;;;;;9.40;4.17;;;;;;;-1.14;74.32;101310.38;5050094;28;20518;-76
2023/03/30 03:41:17;;;;;;;8.70;4.00;;;;;;;-1.09;74.16;101320.06;5049825;28;20029;-73
2023/03/30 03:43:43;;;;;;;11.13;4.13;;;;;;;-1.03;73.92;101311.41;5049936;28;20578;-75
2023/03/30 03:46:08;;;;;;;13.67;4.50;;;;;;;-1.02;73.66;101307.25;5050036;28;20128;-74
2023/03/30 03:48:34;;;;;;;11.53;4.63;;;;;;;-1.03;73.85;101290.25;5049950;28;20033;-77
2023/03/30 03:50:59;;;;;;;10.13;4.17;;;;;;;-0.88;74.35;101323.78;5049625;28;20475;-75
2023/03/30 03:53:26;;;;;;;13.17;4.13;;;;;;;-1.01;73.64;101301.41;5049666;28;20045;-72
2023/03/30 03:55:53;;;;;;;7.03;3.93;;;;;;;-0.92;74.06;101322.59;5049459;28;20570;-74
2023/03/30 03:58:21;;;;;;;10.47;4.43;;;;;;;-1.10;74.50;101323.34;5049920;28;20025;-72
2023/03/30 04:00:48;;;;;;;6.03;3.63;;;;;;;-1.39;74.58;101269.09;5051313;28;20029;-73
2023/03/30 04:03:14;;;;;;;8.80;3.73;;;;;;;-1.33;75.27;101325.41;5053714;28;20063;-74
2023/03/30 04:05:40;;;;;;;10.90;4.30;;;;;;;-1.31;75.37;101326.47;5053782;28;20054;-76
2023/03/30 04:08:09;;;;;;;7.67;3.80;;;;;;;-1.24;75.17;101329.59;5053430;28;20483;-78
2023/03/30 04:10:40;;;;;;;11.45;3.50;;;;;;;-1.35;76.02;101331.97;5053646;28;20117;-76
2023/03/30 04:13:05;;;;;;;10.70;6.30;;;;;;;-1.25;76.30;101330.34;5053157;28;20037;-75
2023/03/30 04:15:32;;;;;;;11.97;5.67;;;;;;;-1.15;76.44;101328.88;5053522;28;20033;-75
2023/03/30 04:17:57;;;;;;;10.30;5.57;;;;;;;-1.10;76.39;101330.94;5053549;28;20539;-75
2023/03/30 04:20:27;;;;;;;15.80;6.30;;;;;;;-1.10;76.40;101320.81;5053569;28;20037;-75
2023/03/30 04:22:54;;;;;;;13.53;6.70;;;;;;;-1.18;76.68;101341.22;5053064;28;20025;-73
2023/03/30 04:25:21;;;;;;;14.60;6.13;;;;;;;-1.14;76.70;101343.31;5053367;28;20043;-76
2023/03/30 04:27:50;;;;;;;14.10;7.77;;;;;;;-1.59;76.78;101297.53;5051453;28;20527;-73
2023/03/30 04:30:16;;;;;;;14.30;6.05;;;;;;;-1.59;77.86;101344.75;5053057;28;20025;-72
2023/03/30 04:32:43;;;;;;;13.27;5.73;;;;;;;-1.82;78.31;101344.25;5053504;28;20103;-73
2023/03/30 04:35:09;;;;;;;10.07;5.00;;;;;;;-1.84;77.78;101348.25;5053254;28;20029;-72
2023/03/30 04:37:37;;;;;;;11.83;5.50;;;;;;;-1.93;77.16;101346.41;5052979;28;20090;-71
2023/03/30 04:40:08;;;;;;;8.57;4.47;;;;;;;-1.94;77.06;101363.25;5053060;28;20029;-72
2023/03/30 04:42:36;;;;;;;11.10;4.77;;;;;;;-1.89;77.12;101362.06;5052787;28;20475;-75
2023/03/30 04:45:09;;;;;;;9.87;4.93;;;;;;;-1.93;77.81;101362.53;5052702;28;20451;-75
2023/03/30 04:47:34;;;;;;;8.93;5.13;;;;;;;-1.88;77.96;101363.88;5052996;28;20029;-74
2023/03/30 04:50:00;;;;;;;11.80;4.97;;;;;;;-1.91;78.03;101350.91;5050806;28;20032;-75
2023/03/30 04:52:26;;;;;;;10.57;5.60;;;;;;;-1.73;77.63;101373.72;5052482;28;20072;-75
2023/03/30 04:54:51;;;;;;;10.40;4.37;;;;;;;-1.59;76.74;101372.63;5052526;28;20126;-72
2023/03/30 04:57:17;;;;;;;12.73;5.63;;;;;;;-1.58;77.31;101376.91;5052569;28;20101;-74
2023/03/30 04:59:43;;;;;;;15.17;5.67;;;;;;;-1.79;77.55;101334.41;5052959;28;20403;-75
2023/03/30 05:02:10;;;;;;;14.50;4.93;;;;;;;-1.42;77.53;101377.72;5052601;28;20037;-74
2023/03/30 05:04:36;;;;;;;14.43;5.10;;;;;;;-1.43;77.80;101382.59;5052439;28;20163;-75
2023/03/30 05:07:02;;;;;;;10.30;5.23;;;;;;;-1.58;78.47;101389.56;5052704;28;20056;-78
2023/03/30 05:09:28;;;;;;;10.43;5.90;;;;;;;-1.70;78.03;101372.41;5052073;28;20036;-73
2023/03/30 05:11:53;;;;;;;10.10;5.83;;;;;;;-1.75;78.08;101360.94;5049964;28;20033;-76
2023/03/30 05:14:19;;;;;;;14.17;7.30;;;;;;;-1.65;79.04;101394.00;5050648;28;20411;-76
2023/03/30 05:16:44;;;;;;;9.87;6.53;;;;;;;-1.60;78.77;101394.47;5052343;28;20025;-74
2023/03/30 05:19:10;;;;;;;15.07;6.90;;;;;;;-1.56;78.17;101396.56;5051827;28;20529;-74
2023/03/30 05:21:36;;;;;;;14.17;8.27;;;;;;;-1.67;79.33;101405.66;5052276;28;20029;-75
2023/03/30 05:24:01;;;;;;;19.87;8.27;;;;;;;-1.77;80.27;101404.56;5052498;28;20024;-72
2023/03/30 05:26:27;;;;;;;16.93;7.67;;;;;;;-1.69;78.72;101398.63;5052100;28;20531;-76
2023/03/30 05:28:53;;;;;;;15.83;5.27;;;;;;;-1.40;78.07;101408.25;5052228;28;20043;-74
2023/03/30 05:31:19;;;;;;;11.57;4.57;;;;;;;-1.13;77.54;101405.03;5051501;28;20048;-74
2023/03/30 05:33:45;;;;;;;15.23;7.27;;;;;;;-1.31;78.06;101351.81;5051521;28;20472;-73
2023/03/30 05:36:11;;;;;;;13.50;6.63;;;;;;;-0.86;80.24;101396.72;5051802;28;20032;-73
2023/03/30 05:38:36;;;;;;;15.60;6.00;;;;;;;-0.53;80.03;101399.81;5051600;28;20036;-72
2023/03/30 05:41:03;;;;;;;14.07;5.67;;;;;;;-0.30;78.94;101396.94;5051426;28;20538;-72
2023/03/30 05:43:30;;;;;;;10.27;5.30;;;;;;;-0.15;78.56;101396.63;5050090;28;20037;-72
2023/03/30 05:45:55;;;;;;;13.37;5.90;;;;;;;0.03;79.01;101405.09;5049295;28;20579;-72
2023/03/30 05:48:21;;;;;;;11.50;6.03;;;;;;;0.21;78.37;101399.16;5050429;28;20029;-73
2023/03/30 05:50:47;;;;;;;16.07;6.13;;;;;;;0.35;76.93;101400.47;5049010;28;20066;-73
2023/03/30 05:53:13;;;;;;;14.53;7.33;;;;;;;0.11;76.93;101361.91;5050846;28;20086;-72
2023/03/30 05:55:38;;;;;;;13.17;5.77;;;;;;;0.43;77.63;101408.81;5051445;28;20021;-75
2023/03/30 05:58:05;;;;;;;11.63;5.80;;;;;;;0.51;75.95;101419.66;5047229;28;20033;-72
2023/03/30 06:00:35;;;;;;;16.63;6.40;;;;;;;0.63;74.27;101416.59;5050982;28;20021;-71
2023/03/30 06:03:01;;;;;;;14.27;6.40;;;;;;;0.79;74.45;101412.94;5051346;28;20123;-71
2023/03/30 06:05:26;;;;;;;16.93;5.97;;;;;;;0.88;73.78;101415.44;5050985;28;20509;-74
2023/03/30 06:07:53;;;;;;;12.57;5.93;;;;;;;1.01;71.82;101413.25;5043232;28;20032;-75
2023/03/30 06:10:18;;;;;;;10.73;5.80;;;;;;;1.19;70.27;101423.28;5050164;28;20107;-74
2023/03/30 06:12:44;;;;;;;15.17;6.20;;;;;;;0.82;70.36;101370.00;5051320;28;20538;-71
2023/03/30 06:15:10;;;;;;;10.87;5.27;;;;;;;1.02;68.18;101411.59;5051021;28;20025;-76
2023/03/30 06:17:35;;;;;;;8.73;4.20;;;;;;;1.07;65.26;101418.88;5051411;28;20048;-73
2023/03/30 06:20:07;;;;;;;8.23;4.33;;;;;;;0.99;64.94;101413.88;5051059;28;20029;-73
2023/03/30 06:22:33;;;;;;;7.63;4.17;;;;;;;1.29;66.42;101429.31;5049994;28;20126;-74
2023/03/30 06:24:59;;;;;;;10.53;4.00;;;;;;;1.60;62.66;101433.72;5049402;28;20060;-72
2023/03/30 06:27:25;;;;;;;10.63;3.40;;;;;;;1.91;62.26;101426.22;5049535;28;20114;-73
2023/03/30 06:29:50;;;;;;;8.87;3.73;;;;;;;1.90;61.26;101391.34;5050600;28;20426;-70
2023/03/30 06:32:16;;;;;;;11.53;3.33;;;;;;;2.38;60.84;101436.16;5050497;28;20049;-72
2023/03/30 06:34:41;;;;;;;17.97;3.40;;;;;;;2.73;61.02;101435.72;5051042;28;20035;-73
2023/03/30 06:37:07;;;;;;;11.90;3.60;;;;;;;2.78;59.37;101431.91;5049347;28;20479;-72
2023/03/30 06:39:36;;;;;;;8.35;3.60;;;;;;;2.88;58.50;101436.13;5047939;28;20032;-75
2023/03/30 06:42:01;;;;;;;8.53;3.70;;;;;;;3.15;57.36;101446.81;5050577;28;20021;-72
2023/03/30 06:44:27;;;;;;;7.47;3.13;;;;;;;3.29;57.51;101451.41;5050161;28;20029;-78
2023/03/30 06:46:53;;;;;;;12.05;3.47;;;;;;;3.27;57.82;101432.50;5046729;28;20025;-74
2023/03/30 06:49:19;;;;;;;6.00;3.03;;;;;;;3.21;56.52;101396.28;5043215;28;20427;-71
2023/03/30 06:51:45;;;;;;;8.27;3.20;;;;;;;3.87;55.11;101439.88;5048331;28;20380;-75
2023/03/30 06:54:10;;;;;;;6.47;2.55;;;;;;;4.16;52.84;101437.84;5046636;28;20059;-71
2023/03/30 06:56:36;;;;;;;6.90;3.22;;;;;;;4.38;53.97;101425.94;5046439;28;20037;-72
2023/03/30 06:59:01;;;;;;;6.72;2.55;;;;;;;4.61;52.99;101431.97;5045356;28;20025;-72
2023/03/30 07:01:28;;;;;;;5.72;2.72;;;;;;;4.75;51.67;101419.31;5049939;28;20092;-72
2023/03/30 07:03:54;;;;;;;5.35;2.75;;;;;;;5.02;50.74;101433.28;5031107;28;20076;-77
2023/03/30 07:06:19;;;;;;;6.78;2.90;;;;;;;5.15;48.81;101430.00;5049857;28;20463;-71
2023/03/30 07:08:45;;;;;;;7.18;2.85;;;;;;;5.26;49.46;101415.41;5043743;28;20043;-72
2023/03/30 07:11:11;;;;;;;6.30;3.40;;;;;;;5.50;48.80;101416.31;5042964;28;20028;-78
2023/03/30 07:13:39;;;;;;;6.75;3.38;;;;;;;5.69;48.76;101417.66;5046075;28;20029;-72
2023/03/30 07:16:06;;;;;;;7.63;2.85;;;;;;;5.61;48.33;101422.22;5046752;28;20040;-73
2023/03/30 07:18:31;;;;;;;7.28;3.28;;;;;;;5.56;48.64;101409.09;5047721;28;20060;-74
2023/03/30 07:20:58;;;;;;;6.53;3.17;;;;;;;5.63;49.74;101411.31;5049959;28;20049;-74
2023/03/30 07:23:25;;;;;;;10.75;3.60;;;;;;;5.80;49.23;101417.63;5049596;28;20021;-71
2023/03/30 07:25:51;;;;;;;5.68;2.75;;;;;;;5.97;49.60;101410.28;5049929;28;20037;-75
2023/03/30 07:28:17;;;;;;;5.40;3.20;;;;;;;6.03;47.69;101404.69;5049793;28;20070;-71
2023/03/30 07:30:43;;;;;;;5.95;2.70;;;;;;;6.13;45.87;101407.13;5049446;28;20535;-71
2023/03/30 07:33:09;;;;;;;5.25;2.58;;;;;;;6.02;44.49;101402.91;5049494;28;20029;-71
2023/03/30 07:35:34;;;;;;;6.65;2.65;;;;;;;6.19;44.86;101404.09;5050951;28;20067;-73
2023/03/30 07:38:00;;;;;;;5.03;2.50;;;;;;;6.17;45.45;101405.66;5053677;28;20025;-73
2023/03/30 07:40:25;;;;;;;10.70;3.67;;;;;;;6.47;42.22;101404.34;5054004;28;20025;-71
2023/03/30 07:42:50;;;;;;;9.40;3.28;;;;;;;6.61;44.63;101412.97;5053255;28;20025;-73
2023/03/30 07:45:16;;;;;;;8.63;3.13;;;;;;;6.68;43.32;101406.56;5053397;28;20087;-72
2023/03/30 07:47:41;;;;;;;5.90;2.88;;;;;;;6.50;41.77;101363.50;5053692;28;20032;-71
2023/03/30 07:50:08;;;;;;;10.48;3.28;;;;;;;6.76;39.99;101408.00;5052425;28;20025;-72
2023/03/30 07:52:35;;;;;;;10.93;3.63;;;;;;;6.85;40.38;101408.59;5053551;28;20391;-71
2023/03/30 07:55:01;;;;;;;9.10;3.35;;;;;;;7.02;39.43;101378.06;5052269;28;20055;-74
2023/03/30 07:57:26;;;;;;;7.50;2.85;;;;;;;7.29;38.57;101397.81;5053825;28;20029;-75
2023/03/30 07:59:52;;;;;;;8.73;5.30;;;;;;;7.25;38.41;101411.28;5053958;28;20036;-71
2023/03/30 08:02:17;;;;;;;6.53;3.38;;;;;;;7.32;38.48;101403.97;5053630;28;20414;-71
2023/03/30 08:04:43;;;;;;;5.43;3.10;;;;;;;7.22;37.95;101367.38;5053564;28;20033;-71
2023/03/30 08:07:10;;;;;;;7.63;2.72;;;;;;;7.63;37.38;101390.50;5035821;28;20029;-71
2023/03/30 08:09:35;;;;;;;5.38;2.80;;;;;;;7.60;37.72;101381.81;5053643;28;20099;-75
2023/03/30 08:12:01;;;;;;;5.25;2.35;;;;;;;7.57;36.64;101355.91;5053849;28;20116;-72
2023/03/30 08:14:27;;;;;;;4.47;2.97;;;;;;;7.74;36.12;101385.25;5053362;28;20033;-71
2023/03/30 08:16:53;;;;;;;7.30;3.45;;;;;;;7.72;36.04;101373.97;5053650;28;20079;-72
2023/03/30 08:19:20;;;;;;;5.97;2.78;;;;;;;7.63;35.74;101334.88;5053542;28;20065;-71
2023/03/30 08:21:46;;;;;;;7.88;3.30;;;;;;;7.97;36.84;101385.81;5053493;28;20029;-74
2023/03/30 08:24:11;;;;;;;6.47;3.08;;;;;;;8.13;38.57;101377.34;5053630;28;20545;-70
2023/03/30 08:26:37;;;;;;;6.38;2.70;;;;;;;8.34;37.14;101374.34;5053592;28;20036;-71
2023/03/30 08:29:06;;;;;;;7.70;2.90;;;;;;;8.21;37.14;101335.00;5053371;28;20396;-71
2023/03/30 08:31:31;;;;;;;13.98;3.13;;;;;;;8.39;34.83;101347.19;5053502;28;20029;-71
2023/03/30 08:33:57;;;;;;;8.10;3.03;;;;;;;8.52;34.30;101364.28;5053463;28;20037;-74
2023/03/30 08:36:23;;;;;;;6.50;2.80;;;;;;;8.61;36.63;101362.25;5052990;28;20028;-71
2023/03/30 08:38:49;;;;;;;5.32;3.00;;;;;;;8.57;34.32;101358.63;5053042;28;20033;-74
2023/03/30 08:41:23;;;;;;;5.85;2.92;;;;;;;8.58;33.41;101357.81;5053172;28;20044;-70
2023/03/30 08:43:59;;;;;;;6.57;2.95;;;;;;;8.76;33.73;101353.66;5053204;28;20032;-71
2023/03/30 08:46:25;;;;;;;6.55;3.42;;;;;;;8.54;34.31;101295.78;5052905;28;20040;-71
2023/03/30 08:48:56;;;;;;;6.60;3.13;;;;;;;9.00;35.23;101352.50;5053073;28;20025;-70
2023/03/30 08:51:31;;;;;;;8.40;3.33;;;;;;;9.09;34.87;101330.66;5052904;28;20032;-70
2023/03/30 08:54:02;;;;;;;4.93;2.63;;;;;;;9.14;34.23;101330.09;5052801;28;20502;-70
2023/03/30 08:56:32;;;;;;;7.65;2.20;;;;;;;9.03;33.14;101332.09;5052967;28;20037;-73
2023/03/30 08:59:15;;;;;;;8.02;2.65;;;;;;;9.22;34.29;101326.28;5053189;28;20084;-70
2023/03/30 09:02:02;;;;;;;7.70;2.72;;;;;;;9.09;33.74;101290.31;5052960;28;20029;-72
2023/03/30 09:04:39;;;;;;;5.93;2.47;;;;;;;9.39;33.62;101324.66;5052547;28;20112;-73
2023/03/30 09:07:26;;;;;;;4.53;2.35;;;;;;;9.29;32.81;101286.28;5052336;28;20021;-71
2023/03/30 09:09:55;;;;;;;6.28;2.60;;;;;;;9.61;32.60;101312.94;5016728;28;20044;-73
2023/03/30 09:12:30;;;;;;;7.80;3.00;;;;;;;9.56;31.99;101252.50;5050887;28;20025;-73
2023/03/30 09:15:25;;;;;;;5.97;3.20;;;;;;;9.97;32.75;101291.59;5052496;28;20270;-70
2023/03/30 09:18:19;;;;;;;6.38;2.30;;;;;;;10.10;32.56;101295.72;4990540;28;20046;-70
2023/03/30 09:20:45;;;;;;;5.57;2.60;;;;;;;9.95;32.42;101280.31;4968721;28;20464;-71
2023/03/30 09:23:14;;;;;;;5.88;2.47;;;;;;;10.09;35.25;101281.91;4970779;28;20053;-76
2023/03/30 09:25:58;;;;;;;6.43;2.80;;;;;;;10.54;35.61;101283.34;4970939;28;20042;-70
2023/03/30 09:28:47;;;;;;;6.40;2.50;;;;;;;10.78;36.52;101275.91;4970750;28;20039;-74
2023/03/30 09:31:16;;;;;;;;;;;;;;;10.88;32.66;101278.16;4970946;28;20042;-71
2023/03/30 09:33:42;;;;;;;7.53;2.60;;;;;;;10.94;33.29;101267.22;4954536;28;19914;-73
2023/03/30 09:36:21;;;;;;;4.15;2.03;;;;;;;10.91;30.77;101265.38;4970608;28;20039;-73
2023/03/30 09:38:49;;;;;;;5.15;2.47;;;;;;;11.03;31.06;101254.75;4970853;28;20418;-75
2023/03/30 09:41:36;;;;;;;7.97;2.08;;;;;;;11.14;31.65;101258.72;4938334;28;20089;-74
2023/03/30 09:44:02;;;;;;;3.15;2.17;;;;;;;11.22;31.19;101253.03;4970670;28;20038;-73
2023/03/30 09:46:28;;;;;;;5.78;2.20;;;;;;;11.33;30.83;101244.97;4970349;28;20038;-71
2023/03/30 09:48:53;;;;;;;6.15;2.70;;;;;;;11.51;30.12;101243.16;4970590;28;20043;-73
2023/03/30 09:51:27;;;;;;;4.32;2.30;;;;;;;11.63;29.10;101238.53;4975742;28;20058;-70
2023/03/30 09:54:05;;;;;;;5.07;3.00;;;;;;;11.79;29.42;101233.22;4998363;28;20044;-73
2023/03/30 09:56:33;;;;;;;3.75;2.38;;;;;;;11.90;28.33;101238.88;5051445;28;20423;-73
2023/03/30 09:59:20;;;;;;;4.18;1.95;;;;;;;11.71;28.06;101187.16;5051085;28;20063;-70
2023/03/30 10:01:45;;;;;;;3.40;2.17;;;;;;;11.48;28.10;101194.78;5051655;28;20029;-74
2023/03/30 10:04:11;;;;;;;4.18;2.22;;;;;;;11.68;28.17;101228.41;5051774;28;20538;-70
2023/03/30 10:06:48;;;;;;;5.28;2.13;;;;;;;11.96;31.85;101231.41;5051496;28;20040;-72
2023/03/30 10:09:16;;;;;;;3.33;2.00;;;;;;;12.07;26.47;101216.34;5051103;28;20468;-76
2023/03/30 10:11:48;;;;;;;5.25;2.33;;;;;;;12.14;27.00;101222.69;5051524;28;20039;-69
2023/03/30 10:14:32;;;;;;;4.18;2.17;;;;;;;12.30;29.27;101221.63;5051029;28;20033;-73
2023/03/30 10:16:59;;;;;;;4.47;2.10;;;;;;;12.21;31.15;101208.28;5050611;28;20068;-70
2023/03/30 10:19:24;;;;;;;8.35;2.63;;;;;;;12.40;30.06;101171.97;5051155;28;20043;-72
2023/03/30 10:21:58;;;;;;;5.57;2.30;;;;;;;12.82;28.48;101202.13;5050770;28;20439;-69
2023/03/30 10:24:26;;;;;;;6.35;2.80;;;;;;;12.75;29.76;101211.38;5048350;28;20052;-70
2023/03/30 10:27:08;;;;;;;4.82;2.13;;;;;;;12.61;28.92;101148.66;5050905;28;20035;-70
2023/03/30 10:29:34;;;;;;;3.90;1.80;;;;;;;12.82;26.96;101191.75;5049290;28;20044;-71
2023/03/30 10:32:15;;;;;;;3.97;1.70;;;;;;;12.93;26.43;101187.91;5050285;28;20434;-70
2023/03/30 10:34:46;;;;;;;2.60;1.92;;;;;;;12.95;25.30;101180.19;5050692;28;20029;-69
2023/03/30 10:37:18;;;;;;;2.88;1.90;;;;;;;12.98;25.70;101174.22;5050580;28;20040;-72
2023/03/30 10:39:46;;;;;;;3.42;1.70;;;;;;;13.26;25.94;101182.22;5048086;28;20021;-71
2023/03/30 10:42:18;;;;;;;3.38;1.90;;;;;;;13.37;24.75;101177.47;5050169;28;20033;-72
2023/03/30 10:44:44;;;;;;;3.50;2.00;;;;;;;13.41;24.46;101174.16;5047555;28;20451;-77
2023/03/30 10:47:09;;;;;;;4.15;2.03;;;;;;;13.36;24.93;101177.41;5050559;28;20107;-74
2023/03/30 10:50:02;;;;;;;3.13;1.65;;;;;;;13.60;25.96;101169.63;5050750;28;20439;-72
2023/03/30 10:53:16;;;;;;;5.00;1.90;;;;;;;13.83;24.68;101159.19;5047115;28;20033;-71
2023/03/30 10:55:48;;;;;;;3.35;1.92;;;;;;;13.65;25.93;101143.88;4965771;28;20050;-69
2023/03/30 10:58:37;;;;;;;4.22;2.63;;;;;;;13.89;25.77;101149.00;4960277;28;20517;-70
2023/03/30 11:01:23;;;;;;;4.18;1.77;;;;;;;14.06;24.94;101140.06;4962675;28;20027;-72
2023/03/30 11:03:58;;;;;;;4.07;2.00;;;;;;;14.02;24.33;101130.44;4960769;28;20042;-72
2023/03/30 11:06:32;;;;;;;4.38;1.92;;;;;;;13.46;25.32;101096.53;4958724;28;20054;-73
2023/03/30 11:09:03;;;;;;;4.35;2.00;;;;;;;13.97;24.58;101128.50;4949327;28;20031;-73
2023/03/30 11:11:40;;;;;;;4.03;1.88;;;;;;;13.95;24.98;101125.84;4949528;29;20061;-73
2023/03/30 11:14:12;;;;;;;3.85;2.38;;;;;;;13.73;24.46;101103.47;4959244;28;20442;-73
2023/03/30 11:17:10;;;;;;;4.50;2.60;;;;;;;13.82;25.02;101134.94;4958162;28;20031;-73
2023/03/30 11:19:42;;;;;;;3.85;1.88;;;;;;;14.01;24.64;101128.66;4912646;29;20088;-71
2023/03/30 11:22:24;;;;;;;5.65;1.95;;;;;;;13.82;25.09;101128.88;4920316;29;20594;-71
2023/03/30 11:24:54;;;;;;;3.08;1.80;;;;;;;13.33;25.56;101123.66;4906826;29;20036;-72
2023/03/30 11:27:39;;;;;;;5.93;2.03;;;;;;;13.13;25.84;101129.84;4922475;29;20565;-72
2023/03/30 11:30:20;;;;;;;4.13;2.00;;;;;;;13.48;25.06;101128.56;4923343;29;20134;-71
2023/03/30 11:33:06;;;;;;;3.75;2.10;;;;;;;13.08;25.00;101085.63;4979448;28;20145;-72
2023/03/30 11:35:44;;;;;;;4.35;1.98;;;;;;;13.17;25.64;101122.25;4986965;28;20077;-72
2023/03/30 11:38:32;;;;;;;3.20;1.83;;;;;;;13.61;26.85;101113.44;4985991;28;20054;-72
2023/03/30 11:41:09;;;;;;;2.55;1.77;;;;;;;14.02;24.78;101107.06;4987745;28;20033;-72